Time;durP1;ratioP1;P1;durP2;ratioP2;P2;SDS_P1;SDS_P2;PMS_P1;PMS_P2;Temp;Humidity;BMP_temperature;BMP_pressure;BME280_temperature;BME280_humidity;BME280_pressure;Samples;Min_cycle;Max_cycle;Signal;HPM_P1;HPM_P2
2022/10/12 00:00:55;;;;;;;;;;;;;;;18.87;70.07;97599.86;595204;238;64934;-66
2022/10/12 00:03:22;;;;;;;;;;;;;;;18.86;70.58;97601.72;595213;238;67104;-66
2022/10/12 00:06:01;;;;;;;;;;;;;;;18.87;70.48;97602.52;595230;238;67005;-66
2022/10/12 00:08:28;;;;;;;;;;;;;;;18.87;70.39;97602.52;595208;238;65072;-66
2022/10/12 00:10:56;;;;;;;;;;;;;;;18.87;70.61;97607.85;595218;237;68161;-66
2022/10/12 00:13:23;;;;;;;;;;;;;;;18.86;70.43;97607.05;595210;238;66862;-66
2022/10/12 00:15:51;;;;;;;;;;;;;;;18.86;70.31;97604.39;595199;238;65674;-66
2022/10/12 00:18:19;;;;;;;;;;;;;;;18.87;70.24;97610.52;595214;238;67338;-66
2022/10/12 00:20:46;;;;;;;;;;;;;;;18.85;69.99;97603.59;595205;238;67018;-66
2022/10/12 00:23:14;;;;;;;;;;;;;;;18.86;70.72;97612.38;595209;237;64938;-66
2022/10/12 00:25:41;;;;;;;;;;;;;;;18.85;70.18;97610.74;595226;238;67238;-65
2022/10/12 00:28:09;;;;;;;;;;;;;;;18.85;70.96;97600.92;595173;238;66908;-66
2022/10/12 00:30:38;;;;;;;;;;;;;;;18.86;70.45;97604.39;595221;238;62788;-66
2022/10/12 00:33:05;;;;;;;;;;;;;;;18.87;70.35;97599.86;595240;238;64545;-66
2022/10/12 00:35:33;;;;;;;;;;;;;;;18.85;70.33;97603.59;595210;237;66160;-66
2022/10/12 00:38:00;;;;;;;;;;;;;;;18.85;70.38;97600.09;595227;238;64839;-66
2022/10/12 00:40:28;;;;;;;;;;;;;;;18.85;70.13;97600.92;595235;238;66741;-66
2022/10/12 00:42:55;;;;;;;;;;;;;;;18.86;70.40;97604.39;595191;238;66871;-66
2022/10/12 00:45:24;;;;;;;;;;;;;;;18.85;70.38;97605.41;595241;238;64835;-66
2022/10/12 00:47:53;;;;;;;;;;;;;;;18.85;70.53;97605.41;595238;238;65662;-66
2022/10/12 00:50:22;;;;;;;;;;;;;;;18.85;70.21;97606.25;595232;238;64293;-70
2022/10/12 00:52:51;;;;;;;;;;;;;;;18.85;70.18;97600.92;595214;238;65362;-70
2022/10/12 00:55:20;;;;;;;;;;;;;;;18.85;70.25;97602.75;595164;237;64550;-70
2022/10/12 00:57:49;;;;;;;;;;;;;;;18.84;70.28;97599.29;595224;238;66915;-70
2022/10/12 01:00:17;;;;;;;;;;;;;;;18.85;70.18;97600.09;595217;238;64890;-70
2022/10/12 01:02:45;;;;;;;;;;;;;;;18.85;70.78;97600.09;595214;237;66929;-66
2022/10/12 01:05:13;;;;;;;;;;;;;;;18.85;70.24;97605.41;595227;238;67040;-66
2022/10/12 01:07:41;;;;;;;;;;;;;;;18.84;69.95;97601.95;595204;238;65027;-70
2022/10/12 01:10:09;;;;;;;;;;;;;;;18.85;70.33;97608.91;595207;238;65053;-70
2022/10/12 01:12:37;;;;;;;;;;;;;;;18.85;70.35;97603.59;595246;238;67075;-70
2022/10/12 01:15:05;;;;;;;;;;;;;;;18.85;70.31;97602.75;595244;238;64892;-70
2022/10/12 01:17:50;;;;;;;;;;;;;;;18.85;70.38;97602.75;595208;238;67223;-70
2022/10/12 01:20:35;;;;;;;;;;;;;;;18.85;70.28;97602.75;595225;238;65638;-69
2022/10/12 01:23:13;;;;;;;;;;;;;;;18.85;70.38;97605.41;595241;238;64958;-70
2022/10/12 01:25:54;;;;;;;;;;;;;;;18.85;70.52;97610.74;595244;238;64923;-70
2022/10/12 01:28:24;;;;;;;;;;;;;;;18.84;70.45;97612.61;595238;238;66924;-70
2022/10/12 01:30:53;;;;;;;;;;;;;;;18.83;70.47;97611.00;595208;238;64900;-70
2022/10/12 01:33:22;;;;;;;;;;;;;;;18.84;70.89;97609.94;595199;238;64793;-70
2022/10/12 01:35:51;;;;;;;;;;;;;;;18.83;70.60;97608.34;595095;237;64758;-69
2022/10/12 01:38:25;;;;;;;;;;;;;;;18.84;70.71;97606.48;594861;238;62788;-70
2022/10/12 01:40:55;;;;;;;;;;;;;;;18.84;70.16;97609.14;595121;238;67076;-70
2022/10/12 01:43:23;;;;;;;;;;;;;;;18.83;70.51;97605.67;595176;238;66882;-70
2022/10/12 01:45:51;;;;;;;;;;;;;;;18.83;70.33;97608.34;595246;238;63521;-70
2022/10/12 01:48:18;;;;;;;;;;;;;;;18.84;70.37;97611.80;595223;238;64494;-70
2022/10/12 01:50:50;;;;;;;;;;;;;;;18.84;70.12;97615.27;595240;238;64576;-70
2022/10/12 01:53:34;;;;;;;;;;;;;;;18.84;70.29;97615.27;595228;238;62752;-70
2022/10/12 01:56:03;;;;;;;;;;;;;;;18.84;70.68;97620.59;595232;238;65007;-70
2022/10/12 01:58:35;;;;;;;;;;;;;;;18.84;70.70;97617.93;595138;237;65239;-70
2022/10/12 02:01:20;;;;;;;;;;;;;;;18.83;70.43;97613.66;594909;238;62846;-70
2022/10/12 02:03:58;;;;;;;;;;;;;;;18.83;70.63;97610.20;595222;238;67132;-70
2022/10/12 02:06:27;;;;;;;;;;;;;;;18.84;70.23;97611.80;595160;237;66883;-71
2022/10/12 02:08:56;;;;;;;;;;;;;;;18.83;70.23;97621.66;595145;238;65049;-71
2022/10/12 02:11:25;;;;;;;;;;;;;;;18.83;70.80;97612.86;595184;237;66933;-71
2022/10/12 02:13:57;;;;;;;;;;;;;;;18.83;70.45;97613.66;595210;238;66804;-71
2022/10/12 02:16:26;;;;;;;;;;;;;;;18.83;70.39;97615.53;595225;238;62582;-71
2022/10/12 02:18:55;;;;;;;;;;;;;;;18.83;70.33;97613.66;595216;237;64554;-71
2022/10/12 02:21:24;;;;;;;;;;;;;;;18.83;70.57;97608.34;595203;238;66630;-71
2022/10/12 02:23:53;;;;;;;;;;;;;;;18.84;70.45;97611.80;594891;236;65875;-71
2022/10/12 02:26:21;;;;;;;;;;;;;;;18.83;70.45;97612.86;595239;238;65092;-71
2022/10/12 02:28:49;;;;;;;;;;;;;;;18.83;70.46;97624.31;595235;238;65072;-71
2022/10/12 02:31:18;;;;;;;;;;;;;;;18.83;70.44;97618.98;595176;238;65115;-71
2022/10/12 02:33:47;;;;;;;;;;;;;;;18.84;70.35;97625.12;594988;238;67888;-71
2022/10/12 02:36:22;;;;;;;;;;;;;;;18.83;70.66;97621.66;597405;236;64915;-71
2022/10/12 02:38:57;;;;;;;;;;;;;;;18.83;70.45;97618.98;599761;236;64970;-71
2022/10/12 02:41:26;;;;;;;;;;;;;;;18.84;70.30;97625.12;599741;236;67131;-71
2022/10/12 02:43:58;;;;;;;;;;;;;;;18.83;70.44;97623.52;600049;236;65754;-71
2022/10/12 02:46:26;;;;;;;;;;;;;;;18.83;70.58;97615.53;600026;236;62447;-71
2022/10/12 02:48:55;;;;;;;;;;;;;;;18.83;70.44;97616.33;600030;236;67242;-71
2022/10/12 02:51:23;;;;;;;;;;;;;;;18.83;70.64;97615.53;600019;236;67049;-71
2022/10/12 02:53:51;;;;;;;;;;;;;;;18.83;70.21;97615.53;600027;236;63778;-72
2022/10/12 02:56:18;;;;;;;;;;;;;;;18.84;70.56;97617.13;600018;236;64858;-71
2022/10/12 02:58:47;;;;;;;;;;;;;;;18.83;70.01;97613.66;600039;236;66889;-71
2022/10/12 03:01:20;;;;;;;;;;;;;;;18.83;70.37;97618.98;600013;236;63013;-72
2022/10/12 03:03:45;;;;;;;;;;;;;;;18.82;70.68;97614.72;599897;235;67252;-71
2022/10/12 03:06:12;;;;;;;;;;;;;;;18.83;70.09;97618.98;600069;236;64444;-71
2022/10/12 03:08:40;;;;;;;;;;;;;;;18.83;70.26;97624.31;600006;234;62670;-71
2022/10/12 03:11:09;;;;;;;;;;;;;;;18.83;70.15;97620.85;600035;236;67104;-71
2022/10/12 03:13:36;;;;;;;;;;;;;;;18.83;70.58;97626.98;600006;236;67486;-71
2022/10/12 03:16:11;;;;;;;;;;;;;;;18.83;70.55;97620.85;600034;236;65139;-71
2022/10/12 03:18:38;;;;;;;;;;;;;;;18.83;70.21;97621.66;600044;236;67039;-71
2022/10/12 03:21:06;;;;;;;;;;;;;;;18.83;70.67;97618.98;600002;236;67016;-71
2022/10/12 03:23:34;;;;;;;;;;;;;;;18.83;70.30;97624.31;600042;234;63058;-71
2022/10/12 03:26:02;;;;;;;;;;;;;;;18.83;70.28;97618.98;600041;236;64755;-71
2022/10/12 03:28:29;;;;;;;;;;;;;;;18.83;70.32;97616.33;600020;236;64855;-71
2022/10/12 03:30:57;;;;;;;;;;;;;;;18.83;70.34;97618.19;600033;236;65229;-66
2022/10/12 03:33:24;;;;;;;;;;;;;;;18.83;70.14;97618.98;600029;236;66800;-67
2022/10/12 03:35:52;;;;;;;;;;;;;;;18.84;70.69;97619.80;598477;236;67068;-67
2022/10/12 03:38:20;;;;;;;;;;;;;;;18.83;70.36;97613.66;595205;238;62718;-67
2022/10/12 03:40:48;;;;;;;;;;;;;;;18.83;70.40;97610.20;595216;238;67129;-71
2022/10/12 03:43:16;;;;;;;;;;;;;;;18.83;70.20;97616.33;595204;238;66914;-71
2022/10/12 03:45:43;;;;;;;;;;;;;;;18.83;70.49;97607.53;595211;238;65085;-67
2022/10/12 03:48:13;;;;;;;;;;;;;;;18.83;70.64;97612.86;595207;238;64861;-67
2022/10/12 03:50:40;;;;;;;;;;;;;;;18.84;70.27;97617.13;595212;238;64817;-67
2022/10/12 03:53:08;;;;;;;;;;;;;;;18.83;70.19;97621.66;595203;238;62697;-67
2022/10/12 03:55:35;;;;;;;;;;;;;;;18.83;70.43;97626.98;595193;237;67376;-67
2022/10/12 03:58:03;;;;;;;;;;;;;;;18.83;70.06;97624.31;595215;238;66913;-66
2022/10/12 04:00:31;;;;;;;;;;;;;;;18.83;69.99;97626.98;595214;238;64917;-67
2022/10/12 04:03:01;;;;;;;;;;;;;;;18.83;70.18;97629.64;595169;237;67988;-67
2022/10/12 04:05:29;;;;;;;;;;;;;;;18.83;70.11;97634.16;595113;237;64885;-66
2022/10/12 04:07:56;;;;;;;;;;;;;;;18.83;70.19;97629.64;595177;238;63544;-66
2022/10/12 04:10:26;;;;;;;;;;;;;;;18.84;70.01;97622.45;595231;237;48210;-66
2022/10/12 04:12:53;;;;;;;;;;;;;;;18.82;70.22;97622.72;595196;238;66930;-66
2022/10/12 04:15:21;;;;;;;;;;;;;;;18.82;70.68;97620.05;595192;237;65060;-66
2022/10/12 04:17:48;;;;;;;;;;;;;;;18.83;70.06;97626.18;595200;237;67188;-67
2022/10/12 04:20:16;;;;;;;;;;;;;;;18.82;70.30;97628.04;595237;238;64643;-66
2022/10/12 04:22:43;;;;;;;;;;;;;;;18.82;70.59;97633.37;595223;238;65127;-66
2022/10/12 04:25:11;;;;;;;;;;;;;;;18.83;70.36;97634.97;595184;238;65059;-67
2022/10/12 04:27:39;;;;;;;;;;;;;;;18.82;70.57;97633.37;595192;238;65385;-67
2022/10/12 04:30:07;;;;;;;;;;;;;;;18.83;70.58;97636.83;595193;238;62733;-67
2022/10/12 04:32:34;;;;;;;;;;;;;;;18.82;70.13;97628.04;595159;237;67259;-67
2022/10/12 04:35:02;;;;;;;;;;;;;;;18.83;70.08;97628.84;595198;238;67102;-67
2022/10/12 04:37:29;;;;;;;;;;;;;;;18.82;70.26;97636.03;599875;236;64974;-67
2022/10/12 04:39:57;;;;;;;;;;;;;;;18.83;70.27;97636.83;600029;236;66924;-67
2022/10/12 04:42:24;;;;;;;;;;;;;;;18.83;70.24;97640.30;600066;236;64475;-67
2022/10/12 04:44:52;;;;;;;;;;;;;;;18.83;70.25;97645.62;600103;236;62739;-66
2022/10/12 04:47:19;;;;;;;;;;;;;;;18.82;70.40;97641.35;600061;236;64421;-67
2022/10/12 04:49:47;;;;;;;;;;;;;;;18.82;70.35;97641.35;600069;236;67621;-67
2022/10/12 04:52:14;;;;;;;;;;;;;;;18.83;70.57;97642.16;600030;236;65020;-67
2022/10/12 04:54:42;;;;;;;;;;;;;;;18.83;70.16;97650.95;600076;236;67099;-66
2022/10/12 04:57:09;;;;;;;;;;;;;;;18.82;70.25;97652.00;600058;236;66629;-67
2022/10/12 04:59:37;;;;;;;;;;;;;;;18.82;70.11;97648.51;600054;236;63670;-67
2022/10/12 05:02:04;;;;;;;;;;;;;;;18.82;70.18;97649.34;600097;236;66700;-67
2022/10/12 05:04:32;;;;;;;;;;;;;;;18.83;70.39;97656.27;600079;236;66829;-71
2022/10/12 05:06:59;;;;;;;;;;;;;;;18.82;70.14;97654.67;600030;236;65827;-71
2022/10/12 05:09:27;;;;;;;;;;;;;;;18.82;70.33;97654.67;600067;236;64572;-71
2022/10/12 05:11:54;;;;;;;;;;;;;;;18.82;70.20;97660.00;600054;236;64836;-71
2022/10/12 05:14:22;;;;;;;;;;;;;;;18.82;70.40;97660.00;600032;234;62593;-67
2022/10/12 05:16:49;;;;;;;;;;;;;;;18.82;70.33;97659.16;600017;236;64922;-67
2022/10/12 05:19:17;;;;;;;;;;;;;;;18.81;70.25;97669.02;600040;236;64954;-71
2022/10/12 05:21:44;;;;;;;;;;;;;;;18.82;70.10;97667.98;600053;236;62809;-71
2022/10/12 05:24:12;;;;;;;;;;;;;;;18.82;70.17;97665.32;600024;236;66965;-71
2022/10/12 05:26:39;;;;;;;;;;;;;;;18.82;70.50;97670.65;600041;236;64705;-71
2022/10/12 05:29:07;;;;;;;;;;;;;;;18.83;70.21;97663.45;600060;236;62759;-71
2022/10/12 05:31:34;;;;;;;;;;;;;;;18.82;70.14;97670.65;600035;236;67202;-71
2022/10/12 05:34:02;;;;;;;;;;;;;;;18.82;70.25;97673.31;600076;236;64713;-71
2022/10/12 05:36:29;;;;;;;;;;;;;;;18.83;70.35;97676.77;597310;236;62759;-71
2022/10/12 05:38:57;;;;;;;;;;;;;;;18.82;70.03;97677.80;595195;238;64898;-71
2022/10/12 05:41:24;;;;;;;;;;;;;;;18.82;70.36;97672.48;595225;238;64833;-71
2022/10/12 05:43:52;;;;;;;;;;;;;;;18.82;70.27;97678.64;595242;238;65047;-71
2022/10/12 05:46:20;;;;;;;;;;;;;;;18.81;70.26;97684.99;595224;238;64901;-71
2022/10/12 05:48:48;;;;;;;;;;;;;;;18.82;70.36;97689.29;595236;238;66918;-71
2022/10/12 05:51:15;;;;;;;;;;;;;;;18.82;70.56;97686.63;595084;238;63630;-73
2022/10/12 05:53:43;;;;;;;;;;;;;;;18.82;70.57;97689.29;595122;238;64884;-72
2022/10/12 05:56:10;;;;;;;;;;;;;;;18.82;70.20;97694.61;594536;237;67086;-74
2022/10/12 05:58:38;;;;;;;;;;;;;;;18.83;70.42;97698.87;595198;238;65023;-74
2022/10/12 06:01:10;;;;;;;;;;;;;;;18.82;70.23;97699.94;596447;237;66807;-77
2022/10/12 06:03:38;;;;;;;;;;;;;;;18.83;70.92;97698.08;597495;237;67228;-74
2022/10/12 06:06:06;;;;;;;;;;;;;;;18.83;70.49;97698.08;597705;237;65402;-74
2022/10/12 06:08:34;;;;;;;;;;;;;;;18.82;70.05;97701.77;597937;237;67471;-75
2022/10/12 06:11:01;;;;;;;;;;;;;;;18.81;70.38;97711.62;597852;237;67126;-74
2022/10/12 06:13:29;;;;;;;;;;;;;;;18.81;70.85;97711.62;597929;237;64886;-73
2022/10/12 06:15:56;;;;;;;;;;;;;;;18.80;70.32;97712.68;597943;237;67000;-75
2022/10/12 06:18:24;;;;;;;;;;;;;;;18.81;69.87;97721.47;597900;237;63980;-73
2022/10/12 06:20:52;;;;;;;;;;;;;;;18.80;69.43;97719.86;597963;237;65446;-72
2022/10/12 06:23:20;;;;;;;;;;;;;;;18.81;69.21;97722.27;597977;237;67119;-73
2022/10/12 06:25:49;;;;;;;;;;;;;;;18.82;69.12;97721.24;597789;237;66900;-74
2022/10/12 06:28:18;;;;;;;;;;;;;;;18.82;69.03;97720.41;597933;237;64939;-75
2022/10/12 06:30:47;;;;;;;;;;;;;;;18.91;70.19;97732.31;597891;237;64932;-74
2022/10/12 06:33:14;;;;;;;;;;;;;;;18.92;70.58;97725.13;597839;237;65079;-75
2022/10/12 06:35:42;;;;;;;;;;;;;;;18.89;70.73;97730.94;596852;237;65225;-75
2022/10/12 06:38:09;;;;;;;;;;;;;;;18.88;69.80;97732.80;592841;239;67015;-75
2022/10/12 06:40:37;;;;;;;;;;;;;;;18.87;69.44;97736.48;592499;239;66869;-76
2022/10/12 06:43:04;;;;;;;;;;;;;;;18.88;69.97;97742.61;593428;239;64921;-76
2022/10/12 06:45:33;;;;;;;;;;;;;;;18.88;69.45;97739.95;593386;239;64586;-75
2022/10/12 06:48:01;;;;;;;;;;;;;;;18.88;69.55;97737.28;593440;239;64660;-75
2022/10/12 06:50:29;;;;;;;;;;;;;;;18.88;69.74;97737.28;593465;239;62539;-75
2022/10/12 06:52:56;;;;;;;;;;;;;;;18.88;69.67;97743.45;593388;239;65094;-75
2022/10/12 06:55:24;;;;;;;;;;;;;;;18.89;69.60;97733.59;593371;239;65305;-75
2022/10/12 06:57:52;;;;;;;;;;;;;;;18.89;69.64;97733.59;593303;239;64883;-75
2022/10/12 07:00:19;;;;;;;;;;;;;;;18.89;69.83;97739.73;593337;239;65862;-73
2022/10/12 07:02:49;;;;;;;;;;;;;;;18.89;69.53;97738.92;593375;239;66953;-75
2022/10/12 07:05:16;;;;;;;;;;;;;;;18.90;69.52;97740.53;593324;239;64884;-73
2022/10/12 07:07:44;;;;;;;;;;;;;;;18.90;69.65;97749.32;593330;239;67397;-75
2022/10/12 07:10:14;;;;;;;;;;;;;;;18.90;69.57;97738.66;593388;239;66691;-75
2022/10/12 07:12:41;;;;;;;;;;;;;;;18.91;69.56;97747.48;593437;239;64910;-74
2022/10/12 07:15:09;;;;;;;;;;;;;;;18.90;69.72;97738.66;593332;239;67758;-75
2022/10/12 07:17:37;;;;;;;;;;;;;;;18.90;69.82;97738.66;593401;239;67056;-67
2022/10/12 07:20:05;;;;;;;;;;;;;;;18.91;69.79;97742.96;593393;239;64879;-69
2022/10/12 07:22:32;;;;;;;;;;;;;;;18.91;69.81;97739.50;593359;239;68234;-67
2022/10/12 07:25:00;;;;;;;;;;;;;;;18.91;70.07;97747.48;593289;239;67953;-68
2022/10/12 07:27:27;;;;;;;;;;;;;;;18.91;69.79;97742.16;593381;239;66089;-69
2022/10/12 07:29:55;;;;;;;;;;;;;;;18.91;69.75;97748.30;593307;239;64622;-68
2022/10/12 07:32:22;;;;;;;;;;;;;;;18.92;69.62;97749.09;593415;239;64701;-69
2022/10/12 07:34:50;;;;;;;;;;;;;;;18.90;69.57;97745.85;593362;239;62861;-68
2022/10/12 07:37:17;;;;;;;;;;;;;;;18.91;69.43;97750.16;595068;238;67321;-68
2022/10/12 07:39:45;;;;;;;;;;;;;;;18.91;69.15;97750.95;595249;238;67216;-71
2022/10/12 07:42:12;;;;;;;;;;;;;;;18.91;68.90;97748.30;595192;238;65185;-68
2022/10/12 07:44:40;;;;;;;;;;;;;;;18.92;68.79;97749.90;595218;238;64971;-70
2022/10/12 07:47:07;;;;;;;;;;;;;;;18.92;68.67;97757.08;595282;238;66943;-74
2022/10/12 07:49:35;;;;;;;;;;;;;;;18.92;68.57;97752.56;595146;238;65058;-74
2022/10/12 07:52:02;;;;;;;;;;;;;;;18.93;68.53;97756.02;595182;238;67087;-72
2022/10/12 07:54:31;;;;;;;;;;;;;;;18.93;68.44;97761.35;595277;238;64707;-74
2022/10/12 07:56:59;;;;;;;;;;;;;;;18.92;68.42;97749.90;595133;238;65113;-73
2022/10/12 07:59:26;;;;;;;;;;;;;;;18.93;68.46;97751.50;595177;238;67653;-70
2022/10/12 08:01:54;;;;;;;;;;;;;;;18.93;68.44;97746.17;595170;238;66527;-69
2022/10/12 08:04:21;;;;;;;;;;;;;;;18.91;68.39;97748.30;595085;238;64201;-70
2022/10/12 08:06:49;;;;;;;;;;;;;;;18.91;68.42;97748.30;595216;238;67175;-70
2022/10/12 08:09:17;;;;;;;;;;;;;;;18.92;68.10;97743.77;595203;238;68246;-73
2022/10/12 08:11:44;;;;;;;;;;;;;;;18.92;67.83;97739.24;595179;238;64858;-72
2022/10/12 08:14:13;;;;;;;;;;;;;;;18.92;68.86;97739.24;595260;238;64715;-74
2022/10/12 08:16:41;;;;;;;;;;;;;;;18.93;68.17;97740.84;595244;238;66917;-74
2022/10/12 08:19:09;;;;;;;;;;;;;;;18.93;67.30;97742.70;595207;238;64915;-74
2022/10/12 08:21:39;;;;;;;;;;;;;;;18.92;67.00;97738.44;595273;238;67115;-74
2022/10/12 08:24:07;;;;;;;;;;;;;;;18.94;66.85;97747.01;595227;238;67254;-74
2022/10/12 08:26:35;;;;;;;;;;;;;;;18.93;66.82;97738.18;595306;238;65077;-74
2022/10/12 08:29:03;;;;;;;;;;;;;;;18.92;66.77;97747.23;595333;238;67727;-74
2022/10/12 08:31:31;;;;;;;;;;;;;;;18.93;66.71;97742.70;595276;238;67021;-74
2022/10/12 08:33:59;;;;;;;;;;;;;;;18.93;66.71;97740.05;595183;238;62877;-73
2022/10/12 08:36:27;;;;;;;;;;;;;;;18.93;66.66;97743.52;594261;238;65386;-75
2022/10/12 08:38:54;;;;;;;;;;;;;;;18.92;66.60;97741.11;593282;239;66657;-76
2022/10/12 08:41:40;;;;;;;;;;;;;;;18.92;66.57;97744.56;593236;239;65086;-69
2022/10/12 08:44:12;;;;;;;;;;;;;;;18.92;66.48;97735.77;593366;239;64972;-74
2022/10/12 08:46:39;;;;;;;;;;;;;;;18.92;66.41;97741.11;593134;239;66967;-74
2022/10/12 08:49:08;;;;;;;;;;;;;;;18.93;66.46;97742.70;593447;239;64964;-75
2022/10/12 08:51:37;;;;;;;;;;;;;;;18.93;66.42;97738.18;593309;239;66788;-76
2022/10/12 08:54:09;;;;;;;;;;;;;;;18.93;66.35;97740.05;593116;239;66911;-73
2022/10/12 08:56:43;;;;;;;;;;;;;;;18.95;66.43;97737.95;593318;239;65463;-73
2022/10/12 08:59:12;;;;;;;;;;;;;;;18.97;67.54;97735.87;592928;239;66815;-76
2022/10/12 09:01:41;;;;;;;;;;;;;;;18.97;67.02;97741.20;593169;239;67029;-71
2022/10/12 09:04:11;;;;;;;;;;;;;;;18.96;66.38;97734.23;592355;239;63558;-74
2022/10/12 09:06:46;;;;;;;;;;;;;;;18.95;66.05;97732.63;591402;239;66806;-74
2022/10/12 09:09:27;;;;;;;;;;;;;;;18.94;66.33;97737.16;593369;239;66701;-74
2022/10/12 09:12:02;;;;;;;;;;;;;;;18.95;66.48;97737.95;593433;239;64960;-74
2022/10/12 09:14:34;;;;;;;;;;;;;;;18.95;66.72;97744.09;593133;239;67794;-74
2022/10/12 09:17:03;;;;;;;;;;;;;;;18.95;66.76;97737.95;593313;239;67521;-74
2022/10/12 09:19:32;;;;;;;;;;;;;;;18.94;66.81;97744.34;593393;239;62691;-75
2022/10/12 09:22:01;;;;;;;;;;;;;;;18.95;66.74;97743.28;593214;239;64798;-69
2022/10/12 09:24:31;;;;;;;;;;;;;;;18.95;66.63;97737.95;593364;239;68160;-69
2022/10/12 09:27:02;;;;;;;;;;;;;;;18.95;66.79;97745.95;593340;239;65129;-71
2022/10/12 09:29:31;;;;;;;;;;;;;;;18.95;66.83;97738.76;593384;239;67025;-69
2022/10/12 09:32:09;;;;;;;;;;;;;;;18.95;67.10;97740.62;588178;239;65707;-67
2022/10/12 09:34:37;;;;;;;;;;;;;;;18.96;67.25;97744.89;593432;239;65301;-69
2022/10/12 09:37:05;;;;;;;;;;;;;;;18.95;67.37;97744.09;593255;238;67088;-69
2022/10/12 09:39:34;;;;;;;;;;;;;;;18.96;67.49;97752.87;593365;239;66787;-70
2022/10/12 09:42:02;;;;;;;;;;;;;;;18.95;67.56;97740.62;593243;239;65032;-70
2022/10/12 09:44:49;;;;;;;;;;;;;;;18.95;67.83;97743.28;593295;239;66992;-69
2022/10/12 09:47:28;;;;;;;;;;;;;;;18.95;67.70;97746.75;593438;239;67070;-70
2022/10/12 09:49:57;;;;;;;;;;;;;;;18.96;67.85;97739.56;593383;239;64850;-70
2022/10/12 09:52:26;;;;;;;;;;;;;;;18.95;67.74;97744.09;593221;239;67502;-70
2022/10/12 09:54:58;;;;;;;;;;;;;;;18.95;67.80;97741.42;592935;239;67850;-69
2022/10/12 09:57:28;;;;;;;;;;;;;;;18.95;67.98;97740.62;593296;239;65131;-69
2022/10/12 09:59:55;;;;;;;;;;;;;;;18.95;67.87;97740.62;593032;239;67859;-71
2022/10/12 10:02:24;;;;;;;;;;;;;;;18.96;68.01;97739.56;593327;239;64765;-70
2022/10/12 10:04:52;;;;;;;;;;;;;;;18.95;68.27;97737.95;593283;239;64909;-71
2022/10/12 10:07:33;;;;;;;;;;;;;;;18.95;68.09;97732.63;593399;239;64955;-71
2022/10/12 10:10:07;;;;;;;;;;;;;;;18.96;68.13;97728.91;593445;239;67939;-69
2022/10/12 10:12:36;;;;;;;;;;;;;;;18.96;68.26;97728.91;593393;239;65019;-69
2022/10/12 10:15:03;;;;;;;;;;;;;;;18.95;68.27;97721.97;593206;239;67038;-69
2022/10/12 10:17:34;;;;;;;;;;;;;;;18.96;68.39;97726.24;593372;239;67024;-69
2022/10/12 10:20:03;;;;;;;;;;;;;;;18.96;68.93;97716.42;593292;239;64895;-69
2022/10/12 10:22:31;;;;;;;;;;;;;;;18.96;68.58;97719.08;593409;239;67256;-69
2022/10/12 10:25:01;;;;;;;;;;;;;;;18.97;68.64;97715.36;593299;239;67059;-69
2022/10/12 10:27:36;;;;;;;;;;;;;;;18.97;68.87;97718.03;593323;239;66080;-69
2022/10/12 10:30:12;;;;;;;;;;;;;;;18.98;68.90;97710.84;593399;239;67267;-69
2022/10/12 10:32:39;;;;;;;;;;;;;;;18.98;69.01;97710.84;590606;239;66781;-69
2022/10/12 10:35:14;;;;;;;;;;;;;;;18.97;69.15;97707.37;593274;239;62498;-70
2022/10/12 10:37:50;;;;;;;;;;;;;;;18.99;69.28;97709.80;593720;239;66919;-69
2022/10/12 10:40:19;;;;;;;;;;;;;;;18.97;69.44;97710.03;593695;239;67199;-69
2022/10/12 10:42:48;;;;;;;;;;;;;;;18.96;69.44;97696.94;593738;239;62774;-69
2022/10/12 10:45:17;;;;;;;;;;;;;;;18.96;69.49;97692.45;593462;239;67969;-69
2022/10/12 10:47:45;;;;;;;;;;;;;;;18.97;69.25;97695.91;593333;239;66866;-68
2022/10/12 10:50:14;;;;;;;;;;;;;;;18.95;68.67;97690.81;593765;239;64809;-69
2022/10/12 10:52:43;;;;;;;;;;;;;;;18.96;68.68;97688.95;593966;237;67042;-69
2022/10/12 10:55:12;;;;;;;;;;;;;;;18.97;68.56;97690.59;598697;237;64722;-69
2022/10/12 10:57:41;;;;;;;;;;;;;;;18.97;68.44;97687.92;598781;237;64959;-69
2022/10/12 11:00:13;;;;;;;;;;;;;;;18.97;68.25;97682.59;598804;237;64626;-69
2022/10/12 11:02:42;;;;;;;;;;;;;;;18.95;68.27;97677.50;598215;237;67008;-68
2022/10/12 11:05:14;;;;;;;;;;;;;;;18.96;67.94;97679.13;598725;237;62941;-68
2022/10/12 11:07:49;;;;;;;;;;;;;;;18.96;67.47;97667.64;598601;236;66172;-69
2022/10/12 11:10:33;;;;;;;;;;;;;;;18.96;67.46;97681.80;598743;237;67106;-67
2022/10/12 11:13:19;;;;;;;;;;;;;;;18.96;67.55;97671.14;598827;236;62665;-68
2022/10/12 11:15:48;;;;;;;;;;;;;;;18.96;67.38;97663.15;598729;237;67064;-70
2022/10/12 11:18:20;;;;;;;;;;;;;;;18.97;67.73;97666.62;598517;236;64731;-70
2022/10/12 11:20:51;;;;;;;;;;;;;;;18.96;67.62;97659.66;598730;236;65285;-70
2022/10/12 11:23:30;;;;;;;;;;;;;;;18.96;68.01;97655.16;598566;237;67046;-70
2022/10/12 11:26:04;;;;;;;;;;;;;;;18.97;67.88;97661.28;598710;236;64814;-69
2022/10/12 11:28:33;;;;;;;;;;;;;;;18.96;67.55;97654.33;598551;236;64913;-71
2022/10/12 11:31:01;;;;;;;;;;;;;;;18.96;67.67;97660.48;598706;237;67215;-69
2022/10/12 11:33:34;;;;;;;;;;;;;;;18.96;67.74;97657.83;598695;237;65053;-70
2022/10/12 11:35:59;;;;;;;;;;;;;;;18.97;68.03;97655.96;598795;236;62857;-69
2022/10/12 11:38:41;;;;;;;;;;;;;;;18.97;67.85;97655.96;599285;236;67712;-69
2022/10/12 11:41:19;;;;;;;;;;;;;;;18.97;68.29;97650.63;599073;236;64701;-68
2022/10/12 11:43:48;;;;;;;;;;;;;;;18.96;68.30;97649.00;599236;236;62761;-67
2022/10/12 11:46:17;;;;;;;;;;;;;;;18.96;68.19;97644.51;599220;236;67317;-69
2022/10/12 11:48:53;;;;;;;;;;;;;;;18.97;68.30;97651.44;599340;236;66951;-71
2022/10/12 11:51:20;;;;;;;;;;;;;;;18.98;67.99;97641.58;599138;236;62824;-69
2022/10/12 11:53:49;;;;;;;;;;;;;;;18.99;68.78;97649.34;599236;236;65821;-68
2022/10/12 11:56:24;;;;;;;;;;;;;;;18.97;68.45;97638.12;599184;236;65227;-68
2022/10/12 11:58:53;;;;;;;;;;;;;;;18.98;68.65;97638.92;599298;236;66092;-69
2022/10/12 12:01:22;;;;;;;;;;;;;;;18.99;68.57;97643.22;599132;236;67105;-69
2022/10/12 12:03:57;;;;;;;;;;;;;;;18.99;68.87;97643.22;599137;236;66795;-69
2022/10/12 12:06:32;;;;;;;;;;;;;;;18.99;69.00;97649.34;599055;236;65039;-76
2022/10/12 12:09:05;;;;;;;;;;;;;;;18.98;69.14;97636.25;599375;236;64641;-76
2022/10/12 12:11:34;;;;;;;;;;;;;;;18.99;69.35;97638.69;599283;236;66874;-75
2022/10/12 12:14:19;;;;;;;;;;;;;;;18.98;69.45;97636.25;599293;236;65006;-75
2022/10/12 12:16:48;;;;;;;;;;;;;;;18.99;69.41;97640.55;599300;236;67698;-76
2022/10/12 12:19:33;;;;;;;;;;;;;;;18.99;69.25;97637.89;599308;236;66899;-75
2022/10/12 12:22:22;;;;;;;;;;;;;;;19.00;69.41;97636.83;599033;236;44821;-75
2022/10/12 12:24:53;;;;;;;;;;;;;;;19.00;69.64;97631.50;599295;236;67339;-77
2022/10/12 12:27:24;;;;;;;;;;;;;;;18.99;69.72;97635.23;599322;236;49279;-76
2022/10/12 12:29:52;;;;;;;;;;;;;;;18.98;69.69;97630.92;599203;236;63004;-77
2022/10/12 12:32:22;;;;;;;;;;;;;;;18.98;69.61;97625.60;599319;236;67069;-80
2022/10/12 12:34:51;;;;;;;;;;;;;;;18.97;69.77;97624.80;594470;236;67087;-74
2022/10/12 12:37:22;;;;;;;;;;;;;;;18.97;69.26;97622.13;595142;236;65428;-75
2022/10/12 12:39:57;;;;;;;;;;;;;;;19.00;69.66;97631.50;589973;238;47206;-73
2022/10/12 12:42:34;;;;;;;;;;;;;;;19.02;69.18;97630.21;595029;237;48435;-74
2022/10/12 12:45:22;;;;;;;;;;;;;;;19.03;68.93;97625.69;594891;238;44819;-72
2022/10/12 12:47:52;;;;;;;;;;;;;;;19.03;69.11;97636.34;595049;238;64760;-74
2022/10/12 12:50:30;;;;;;;;;;;;;;;19.03;69.17;97633.67;595097;238;65019;-67
2022/10/12 12:53:01;;;;;;;;;;;;;;;19.02;69.38;97632.88;594918;238;47367;-70
2022/10/12 12:55:34;;;;;;;;;;;;;;;19.02;69.22;97629.41;594868;237;46972;-71
2022/10/12 12:58:07;;;;;;;;;;;;;;;19.02;69.55;97634.73;595223;238;67008;-71
2022/10/12 13:00:50;;;;;;;;;;;;;;;19.01;69.57;97631.23;595592;237;45047;-71